Time;durP1;ratioP1;P1;durP2;ratioP2;P2;SDS_P1;SDS_P2;PMS_P1;PMS_P2;Temp;Humidity;BMP_temperature;BMP_pressure;BME280_temperature;BME280_humidity;BME280_pressure;Samples;Min_cycle;Max_cycle;Signal;HPM_P1;HPM_P2
2022/06/01 00:00:12;;;;;;;10.53;5.20;;;;;;;;;;4434557;80;28505;-78
2022/06/01 00:06:16;;;;;;;8.85;4.83;;;;;;;;;;4419507;80;28528;-79
2022/06/01 00:12:17;;;;;;;8.43;5.12;;;;;;;;;;4369637;80;28513;-79
2022/06/01 00:18:18;;;;;;;8.53;5.80;;;;;;;;;;4449468;80;28489;-79
2022/06/01 00:24:19;;;;;;;8.28;5.35;;;;;;;;;;4409777;80;28507;-81
2022/06/01 00:30:22;;;;;;;7.40;4.75;;;;;;;;;;4346570;81;28468;-81
2022/06/01 00:36:23;;;;;;;10.03;5.50;;;;;;;;;;4309064;81;28504;-81
2022/06/01 00:42:29;;;;;;;10.08;5.87;;;;;;;;;;4379848;81;28497;-81
2022/06/01 00:48:33;;;;;;;8.53;5.50;;;;;;;;;;4336341;81;28576;-81
2022/06/01 00:54:35;;;;;;;10.55;6.37;;;;;;;;;;4318142;81;35379;-80
2022/06/01 01:00:38;;;;;;;10.55;6.12;;;;;;;;;;4373968;80;28510;-80
2022/06/01 01:06:43;;;;;;;11.15;5.47;;;;;;;;;;4383749;80;28476;-79
2022/06/01 01:12:59;;;;;;;10.30;5.28;;;;;;;;;;4306167;83;28526;-79
2022/06/01 01:19:06;;;;;;;9.95;5.92;;;;;;;;;;4326970;81;28582;-79
2022/06/01 01:25:22;;;;;;;8.20;6.17;;;;;;;;;;4325789;80;28558;-80
2022/06/01 01:31:25;;;;;;;9.28;5.58;;;;;;;;;;4371478;81;28525;-81
2022/06/01 01:37:28;;;;;;;9.68;5.65;;;;;;;;;;4381992;81;28523;-81
2022/06/01 01:43:32;;;;;;;8.20;5.40;;;;;;;;;;4386088;81;28549;-81
2022/06/01 01:49:36;;;;;;;7.03;5.10;;;;;;;;;;4372384;81;28503;-82
2022/06/01 01:55:58;;;;;;;11.45;6.05;;;;;;;;;;4311223;83;28484;-81
2022/06/01 02:02:03;;;;;;;11.97;6.20;;;;;;;;;;4305754;81;28481;-81
2022/06/01 02:08:16;;;;;;;10.40;6.58;;;;;;;;;;4305636;83;28471;-81
2022/06/01 02:14:27;;;;;;;8.70;5.95;;;;;;;;;;4346092;81;28477;-82
2022/06/01 02:20:40;;;;;;;10.78;5.67;;;;;;;;;;4359721;81;28497;-80
2022/06/01 02:26:41;;;;;;;9.28;5.05;;;;;;;;;;4380545;80;28504;-81
2022/06/01 02:32:44;;;;;;;8.20;5.30;;;;;;;;;;4349912;81;29025;-81
2022/06/01 02:38:51;;;;;;;10.10;5.58;;;;;;;;;;4356736;81;28546;-80
2022/06/01 02:45:02;;;;;;;9.58;6.05;;;;;;;;;;4356262;81;28468;-81
2022/06/01 02:51:03;;;;;;;9.65;5.78;;;;;;;;;;4376893;81;28719;-80
2022/06/01 02:57:05;;;;;;;8.95;5.33;;;;;;;;;;4379184;81;28474;-79
2022/06/01 03:03:08;;;;;;;10.68;5.78;;;;;;;;;;4382167;81;28481;-79
2022/06/01 03:09:11;;;;;;;9.78;5.55;;;;;;;;;;4376534;81;28524;-79
2022/06/01 03:15:14;;;;;;;12.43;6.70;;;;;;;;;;4306484;83;28577;-79
2022/06/01 03:21:15;;;;;;;12.43;6.58;;;;;;;;;;4307563;83;28572;-80
2022/06/01 03:27:17;;;;;;;12.00;5.97;;;;;;;;;;4343562;80;29158;-82
2022/06/01 03:33:18;;;;;;;10.58;6.10;;;;;;;;;;4317153;80;28538;-81
2022/06/01 03:39:19;;;;;;;13.70;6.70;;;;;;;;;;4358301;80;28460;-81
2022/06/01 03:51:39;;;;;;;12.73;7.35;;;;;;;;;;4377944;80;28466;-84
2022/06/01 03:57:42;;;;;;;12.23;7.30;;;;;;;;;;4344945;80;28544;-81
2022/06/01 04:03:43;;;;;;;10.20;6.83;;;;;;;;;;4333565;80;28588;-82
2022/06/01 04:09:45;;;;;;;10.10;7.10;;;;;;;;;;4347244;81;28488;-83
2022/06/01 04:15:46;;;;;;;11.88;7.70;;;;;;;;;;4344531;80;28492;-85
2022/06/01 04:21:50;;;;;;;11.63;7.53;;;;;;;;;;4372993;80;28504;-85
2022/06/01 04:27:51;;;;;;;11.88;7.75;;;;;;;;;;4388806;78;28525;-83
2022/06/01 04:33:53;;;;;;;11.57;7.30;;;;;;;;;;4391634;78;28499;-84
2022/06/01 04:39:54;;;;;;;11.03;7.22;;;;;;;;;;4410730;78;28595;-83
2022/06/01 04:45:56;;;;;;;15.10;8.00;;;;;;;;;;4423172;78;28499;-82
2022/06/01 04:51:57;;;;;;;12.63;7.85;;;;;;;;;;4372872;78;28599;-82
2022/06/01 04:57:58;;;;;;;11.83;8.43;;;;;;;;;;4406533;79;28599;-83
2022/06/01 05:04:02;;;;;;;15.90;8.23;;;;;;;;;;4387358;78;28540;-81
2022/06/01 05:10:04;;;;;;;12.50;7.53;;;;;;;;;;4382531;78;28522;-77
2022/06/01 05:16:06;;;;;;;11.05;7.85;;;;;;;;;;4408563;78;28523;-80
2022/06/01 05:22:08;;;;;;;11.70;7.55;;;;;;;;;;4398858;78;28502;-79
2022/06/01 05:28:10;;;;;;;11.00;7.85;;;;;;;;;;4397683;78;28531;-79
2022/06/01 05:34:11;;;;;;;12.23;7.70;;;;;;;;;;4435495;78;28479;-75
2022/06/01 05:40:12;;;;;;;12.20;8.28;;;;;;;;;;4386065;78;28533;-77
2022/06/01 05:46:13;;;;;;;15.25;7.90;;;;;;;;;;4421648;78;28548;-79
2022/06/01 05:52:18;;;;;;;14.13;7.60;;;;;;;;;;4382862;78;28464;-77
2022/06/01 05:58:21;;;;;;;15.98;7.62;;;;;;;;;;4431163;78;28509;-79
2022/06/01 06:04:23;;;;;;;11.40;7.35;;;;;;;;;;4400203;78;28531;-79
2022/06/01 06:10:26;;;;;;;13.22;7.58;;;;;;;;;;4429583;78;28507;-76
2022/06/01 06:16:30;;;;;;;12.03;7.08;;;;;;;;;;4381419;78;28539;-77
2022/06/01 06:22:31;;;;;;;10.48;5.92;;;;;;;;;;4463069;76;28467;-78
2022/06/01 06:28:33;;;;;;;9.63;5.60;;;;;;;;;;4452937;80;28559;-78
2022/06/01 06:34:34;;;;;;;9.00;4.58;;;;;;;;;;4410144;80;28499;-79
2022/06/01 06:40:35;;;;;;;6.97;4.35;;;;;;;;;;4296839;80;28466;-78
2022/06/01 06:46:36;;;;;;;6.80;4.12;;;;;;;;;;4305758;80;28542;-78
2022/06/01 06:52:38;;;;;;;6.45;3.90;;;;;;;;;;4331421;80;28539;-76
2022/06/01 06:58:40;;;;;;;7.65;3.92;;;;;;;;;;4316427;80;28521;-77
2022/06/01 07:04:45;;;;;;;8.05;3.08;;;;;;;;;;4376234;80;28566;-80
2022/06/01 07:10:47;;;;;;;6.47;2.80;;;;;;;;;;4373423;80;28503;-81
2022/06/01 07:16:48;;;;;;;3.65;2.20;;;;;;;;;;4341823;82;28537;-80
2022/06/01 07:22:49;;;;;;;4.28;2.37;;;;;;;;;;4325953;80;28460;-79
2022/06/01 07:28:51;;;;;;;4.92;2.60;;;;;;;;;;4420690;78;28488;-78
2022/06/01 07:34:53;;;;;;;3.87;2.30;;;;;;;;;;4445653;78;28504;-79
2022/06/01 07:47:14;;;;;;;3.05;2.33;;;;;;;;;;4433926;80;28488;-79
2022/06/01 07:53:16;;;;;;;3.58;2.00;;;;;;;;;;4438450;80;28524;-79
2022/06/01 07:59:17;;;;;;;3.27;2.25;;;;;;;;;;4431605;79;28507;-79
2022/06/01 08:05:20;;;;;;;7.33;2.60;;;;;;;;;;4425055;78;28493;-84
2022/06/01 08:13:06;;;;;;;5.20;2.22;;;;;;;;;;4429966;78;28499;-82
2022/06/01 08:17:25;;;;;;;4.22;2.45;;;;;;;;;;4433153;80;28516;-80
2022/06/01 08:23:29;;;;;;;3.35;2.00;;;;;;;;;;4423588;78;28942;-82
2022/06/01 08:29:30;;;;;;;3.05;1.80;;;;;;;;;;4360997;79;28523;-81
2022/06/01 08:35:35;;;;;;;3.12;2.00;;;;;;;;;;4411872;78;28570;-80
2022/06/01 08:41:38;;;;;;;2.90;2.05;;;;;;;;;;4432018;78;28512;-77
2022/06/01 08:47:41;;;;;;;3.10;2.00;;;;;;;;;;4378739;80;28466;-78
2022/06/01 08:53:42;;;;;;;4.50;2.60;;;;;;;;;;4443424;78;28501;-78
2022/06/01 09:00:05;;;;;;;5.05;2.92;;;;;;;;;;4423494;79;28563;-77
2022/06/01 09:06:29;;;;;;;4.83;2.90;;;;;;;;;;4418134;78;28520;-78
2022/06/01 09:12:32;;;;;;;5.12;3.02;;;;;;;;;;4404779;80;28491;-78
2022/06/01 09:18:42;;;;;;;4.83;2.70;;;;;;;;;;4389304;78;28464;-79
2022/06/01 09:24:44;;;;;;;3.85;2.58;;;;;;;;;;4383920;78;28549;-77
2022/06/01 09:31:02;;;;;;;4.30;2.87;;;;;;;;;;4416502;78;28509;-81
2022/06/01 09:37:21;;;;;;;4.62;2.55;;;;;;;;;;4415380;78;28541;-79
2022/06/01 09:43:25;;;;;;;4.12;2.58;;;;;;;;;;4406318;78;28553;-79
2022/06/01 09:49:32;;;;;;;2.95;2.10;;;;;;;;;;4432792;78;28453;-79
2022/06/01 09:55:33;;;;;;;2.30;1.90;;;;;;;;;;4456208;78;28593;-80
2022/06/01 10:08:08;;;;;;;4.75;1.92;;;;;;;;;;4416701;78;28500;-79
2022/06/01 10:14:21;;;;;;;5.75;3.17;;;;;;;;;;4412434;78;28570;-84
2022/06/01 10:20:31;;;;;;;3.00;2.60;;;;;;;;;;4414649;78;28716;-81
2022/06/01 10:26:36;;;;;;;3.00;2.10;;;;;;;;;;4399156;78;28508;-80
2022/06/01 10:32:49;;;;;;;3.85;2.37;;;;;;;;;;4407324;78;28474;-80
2022/06/01 10:39:28;;;;;;;3.45;2.58;;;;;;;;;;4399666;78;28493;-80
2022/06/01 10:45:32;;;;;;;4.58;2.98;;;;;;;;;;4312593;81;28534;-80
2022/06/01 10:51:34;;;;;;;3.95;2.52;;;;;;;;;;4284025;81;28511;-82
2022/06/01 10:57:39;;;;;;;5.90;2.27;;;;;;;;;;4291586;82;28540;-82
2022/06/01 11:03:47;;;;;;;3.72;2.40;;;;;;;;;;4290711;81;28555;-81
2022/06/01 11:10:07;;;;;;;3.75;2.20;;;;;;;;;;4291855;81;28518;-78
2022/06/01 11:16:20;;;;;;;2.30;1.95;;;;;;;;;;4232572;82;28526;-77
2022/06/01 11:22:27;;;;;;;2.70;2.00;;;;;;;;;;4306105;81;28505;-78
2022/06/01 11:28:47;;;;;;;3.22;1.95;;;;;;;;;;4290944;81;28521;-78
2022/06/01 11:34:55;;;;;;;5.42;1.80;;;;;;;;;;4113398;83;28911;-81
2022/06/01 11:41:13;;;;;;;2.75;1.60;;;;;;;;;;4246912;82;28585;-80
2022/06/01 11:47:17;;;;;;;2.92;1.60;;;;;;;;;;4230825;83;28529;-81
2022/06/01 11:53:38;;;;;;;5.62;1.40;;;;;;;;;;4223070;83;28520;-82
2022/06/01 11:59:49;;;;;;;2.05;1.30;;;;;;;;;;4207228;83;28538;-81
2022/06/01 12:06:11;;;;;;;3.17;1.30;;;;;;;;;;4217947;83;28525;-79
2022/06/01 12:12:34;;;;;;;2.85;1.05;;;;;;;;;;4230844;83;28533;-79
2022/06/01 12:18:36;;;;;;;2.30;1.10;;;;;;;;;;4218208;83;28496;-79
2022/06/01 12:31:16;;;;;;;4.53;1.30;;;;;;;;;;4183202;83;28550;-79
2022/06/01 12:37:21;;;;;;;2.70;1.20;;;;;;;;;;4235840;82;28525;-80
2022/06/01 12:43:22;;;;;;;3.35;1.20;;;;;;;;;;4199693;83;28567;-80
2022/06/01 12:49:32;;;;;;;2.62;1.10;;;;;;;;;;4249853;82;28516;-82
2022/06/01 12:55:33;;;;;;;2.20;1.32;;;;;;;;;;4233868;82;28542;-83
2022/06/01 13:01:34;;;;;;;4.30;1.50;;;;;;;;;;4233713;82;28520;-83
2022/06/01 13:07:39;;;;;;;3.83;1.17;;;;;;;;;;4241062;82;28515;-80
2022/06/01 13:13:44;;;;;;;1.27;1.10;;;;;;;;;;4241524;82;28526;-81
2022/06/01 13:20:01;;;;;;;2.27;1.27;;;;;;;;;;4241352;83;28527;-82
2022/06/01 13:26:08;;;;;;;3.70;1.07;;;;;;;;;;4280732;82;28497;-82
2022/06/01 13:32:12;;;;;;;2.85;1.15;;;;;;;;;;4303956;82;28545;-82
2022/06/01 13:38:23;;;;;;;2.80;1.30;;;;;;;;;;4295679;82;28516;-81
2022/06/01 13:44:44;;;;;;;3.02;1.10;;;;;;;;;;4225370;83;28540;-81
2022/06/01 13:50:49;;;;;;;1.92;1.00;;;;;;;;;;4195077;83;28584;-81
2022/06/01 13:57:04;;;;;;;2.95;1.20;;;;;;;;;;4208731;83;28481;-80
2022/06/01 14:03:17;;;;;;;1.07;0.90;;;;;;;;;;4221516;83;28546;-80
2022/06/01 14:09:25;;;;;;;2.75;0.95;;;;;;;;;;4213776;83;28541;-80
2022/06/01 14:15:26;;;;;;;1.40;0.90;;;;;;;;;;4212598;83;28553;-80
2022/06/01 14:21:28;;;;;;;2.52;1.20;;;;;;;;;;4196373;83;28557;-79
2022/06/01 14:33:49;;;;;;;3.80;1.00;;;;;;;;;;4212975;83;28525;-80
2022/06/01 14:39:50;;;;;;;1.87;1.05;;;;;;;;;;4225093;83;28550;-78
2022/06/01 14:45:51;;;;;;;3.25;1.07;;;;;;;;;;4222897;83;28540;-79
2022/06/01 14:51:59;;;;;;;2.75;1.10;;;;;;;;;;4206833;83;28524;-78
2022/06/01 14:58:01;;;;;;;2.33;1.10;;;;;;;;;;4216544;83;28568;-80
2022/06/01 15:04:02;;;;;;;4.12;1.20;;;;;;;;;;4293496;82;28520;-81
2022/06/01 15:10:04;;;;;;;2.35;1.10;;;;;;;;;;4282086;82;28526;-80
2022/06/01 15:16:08;;;;;;;1.50;1.00;;;;;;;;;;4280129;82;28537;-78
2022/06/01 15:22:10;;;;;;;2.75;1.32;;;;;;;;;;4293853;82;28608;-78
2022/06/01 15:28:12;;;;;;;2.65;1.45;;;;;;;;;;4282943;82;28486;-76
2022/06/01 15:40:34;;;;;;;2.25;1.20;;;;;;;;;;4271985;82;28579;-77
2022/06/01 15:46:38;;;;;;;1.57;1.20;;;;;;;;;;4306106;81;28520;-78
2022/06/01 15:52:39;;;;;;;1.60;1.30;;;;;;;;;;4305165;81;28470;-77
2022/06/01 15:58:40;;;;;;;1.72;1.22;;;;;;;;;;4277553;81;28516;-77
2022/06/01 16:04:44;;;;;;;2.70;1.22;;;;;;;;;;4226599;83;28636;-77
2022/06/01 16:10:45;;;;;;;2.85;1.40;;;;;;;;;;4220044;83;28491;-76
2022/06/01 16:16:46;;;;;;;1.75;1.32;;;;;;;;;;4301100;81;28535;-77
2022/06/01 16:22:47;;;;;;;2.37;1.62;;;;;;;;;;4294404;82;28530;-77
2022/06/01 16:28:48;;;;;;;2.62;1.30;;;;;;;;;;4296446;81;28547;-77
2022/06/01 16:34:49;;;;;;;3.55;1.60;;;;;;;;;;4290910;82;28547;-78
2022/06/01 16:40:54;;;;;;;4.10;1.50;;;;;;;;;;4281053;81;28538;-78
2022/06/01 16:46:55;;;;;;;3.75;1.45;;;;;;;;;;4298304;81;28500;-77
2022/06/01 16:52:57;;;;;;;5.00;1.45;;;;;;;;;;4296643;81;28514;-78
2022/06/01 16:58:58;;;;;;;1.82;1.30;;;;;;;;;;4286666;81;28528;-78
2022/06/01 17:05:00;;;;;;;2.47;1.10;;;;;;;;;;4322088;81;28536;-78
2022/06/01 17:11:02;;;;;;;2.92;1.47;;;;;;;;;;4311251;81;28493;-78
2022/06/01 17:17:05;;;;;;;4.25;1.17;;;;;;;;;;4276507;81;28510;-77
2022/06/01 17:23:07;;;;;;;3.92;1.37;;;;;;;;;;4281736;81;28509;-78
2022/06/01 17:29:08;;;;;;;2.77;1.35;;;;;;;;;;4298279;81;28538;-78
2022/06/01 17:35:13;;;;;;;2.87;1.70;;;;;;;;;;4293273;81;28528;-77
2022/06/01 17:41:14;;;;;;;3.27;1.50;;;;;;;;;;4293288;81;28557;-78
2022/06/01 17:47:17;;;;;;;5.90;1.40;;;;;;;;;;4223325;81;28533;-79
2022/06/01 17:53:19;;;;;;;1.52;1.37;;;;;;;;;;4205410;83;28560;-80
2022/06/01 17:59:22;;;;;;;2.90;1.52;;;;;;;;;;4217040;83;28504;-82
2022/06/01 18:05:23;;;;;;;5.50;1.72;;;;;;;;;;4220204;84;28526;-81
2022/06/01 18:11:25;;;;;;;6.37;1.40;;;;;;;;;;4222145;83;28515;-84
2022/06/01 18:17:29;;;;;;;6.17;1.77;;;;;;;;;;4235021;83;28512;-82
2022/06/01 18:23:29;;;;;;;7.30;1.95;;;;;;;;;;4214986;83;28529;-84
2022/06/01 18:29:30;;;;;;;3.75;1.67;;;;;;;;;;4230225;83;28534;-84
2022/06/01 18:35:31;;;;;;;8.10;2.00;;;;;;;;;;4208938;83;28595;-84
2022/06/01 18:41:34;;;;;;;6.95;2.12;;;;;;;;;;4229198;83;28530;-84
2022/06/01 18:47:37;;;;;;;3.37;2.12;;;;;;;;;;4227763;81;28537;-81
2022/06/01 18:53:38;;;;;;;6.78;2.10;;;;;;;;;;4227626;83;28483;-81
2022/06/01 19:06:01;;;;;;;7.45;1.95;;;;;;;;;;4221952;83;28551;-81
2022/06/01 19:12:03;;;;;;;4.33;2.27;;;;;;;;;;4232820;83;28510;-81
2022/06/01 19:18:05;;;;;;;5.42;2.52;;;;;;;;;;4226651;83;28513;-81
2022/06/01 19:24:10;;;;;;;8.48;3.15;;;;;;;;;;4221533;83;28580;-82
2022/06/01 19:30:17;;;;;;;3.47;2.12;;;;;;;;;;4218868;83;28624;-82
2022/06/01 19:49:01;;;;;;;3.58;2.58;;;;;;;;;;4290543;81;28508;-80
2022/06/01 19:55:03;;;;;;;3.80;2.25;;;;;;;;;;4298544;81;28460;-81
2022/06/01 20:01:05;;;;;;;5.22;2.47;;;;;;;;;;4283316;81;28532;-82
2022/06/01 20:07:06;;;;;;;4.97;2.77;;;;;;;;;;4300526;81;28490;-81
2022/06/01 20:13:18;;;;;;;5.25;2.62;;;;;;;;;;4217132;83;28528;-81
2022/06/01 20:19:21;;;;;;;5.62;2.90;;;;;;;;;;4220039;83;28531;-80
2022/06/01 20:25:24;;;;;;;5.53;3.22;;;;;;;;;;4184581;83;28516;-81
2022/06/01 20:31:25;;;;;;;8.40;4.15;;;;;;;;;;4222836;83;28514;-81
2022/06/01 20:37:26;;;;;;;10.75;4.62;;;;;;;;;;4247518;82;28514;-81
2022/06/01 20:43:28;;;;;;;9.33;4.87;;;;;;;;;;4220595;82;28497;-81
2022/06/01 20:49:29;;;;;;;18.00;6.50;;;;;;;;;;4270890;82;29022;-83
2022/06/01 20:55:30;;;;;;;20.52;8.53;;;;;;;;;;4168672;84;28542;-82
2022/06/01 21:01:32;;;;;;;20.17;8.48;;;;;;;;;;4257592;82;28518;-82
2022/06/01 21:07:35;;;;;;;18.42;7.47;;;;;;;;;;4204301;83;28540;-81
2022/06/01 21:13:37;;;;;;;12.28;5.08;;;;;;;;;;4229255;83;28550;-83
2022/06/01 21:19:38;;;;;;;7.45;4.97;;;;;;;;;;4235873;83;28540;-82
2022/06/01 21:25:41;;;;;;;10.50;5.55;;;;;;;;;;4216799;83;28579;-81
2022/06/01 21:31:42;;;;;;;17.75;6.62;;;;;;;;;;4233889;83;28492;-81
2022/06/01 21:37:43;;;;;;;12.47;6.00;;;;;;;;;;4228300;83;28498;-81
2022/06/01 21:43:44;;;;;;;12.95;6.10;;;;;;;;;;4242079;81;28917;-81
2022/06/01 21:49:46;;;;;;;9.68;5.75;;;;;;;;;;4253145;82;28474;-81
2022/06/01 21:55:47;;;;;;;11.38;5.58;;;;;;;;;;4250876;82;28549;-82
2022/06/01 22:01:48;;;;;;;11.63;5.72;;;;;;;;;;4246362;82;28504;-81
2022/06/01 22:07:50;;;;;;;11.43;5.45;;;;;;;;;;4254084;82;28468;-81
2022/06/01 22:13:51;;;;;;;14.07;5.53;;;;;;;;;;4253817;82;28480;-81
2022/06/01 22:19:53;;;;;;;10.55;5.92;;;;;;;;;;4251505;82;28579;-82
2022/06/01 22:25:54;;;;;;;13.25;6.33;;;;;;;;;;4254019;82;28545;-83
2022/06/01 22:31:55;;;;;;;10.35;5.95;;;;;;;;;;4278079;82;28477;-83
2022/06/01 22:37:59;;;;;;;9.35;5.85;;;;;;;;;;4232927;82;28496;-82
2022/06/01 22:44:07;;;;;;;10.53;5.37;;;;;;;;;;4251335;81;29073;-81
2022/06/01 22:50:15;;;;;;;9.70;5.22;;;;;;;;;;4242560;82;28576;-80
2022/06/01 22:56:16;;;;;;;10.78;5.53;;;;;;;;;;4223984;82;28544;-81
2022/06/01 23:02:17;;;;;;;11.45;5.60;;;;;;;;;;4256436;82;28522;-82
2022/06/01 23:08:18;;;;;;;11.45;5.87;;;;;;;;;;4258464;82;28481;-81
2022/06/01 23:14:19;;;;;;;9.03;5.42;;;;;;;;;;4235643;82;28494;-82
2022/06/01 23:20:26;;;;;;;12.78;5.65;;;;;;;;;;4252063;82;28549;-82
2022/06/01 23:26:29;;;;;;;10.30;5.53;;;;;;;;;;4255421;82;28537;-80
2022/06/01 23:32:48;;;;;;;11.63;5.60;;;;;;;;;;4252224;82;28542;-81
2022/06/01 23:38:52;;;;;;;11.70;5.67;;;;;;;;;;4238462;82;28558;-80
2022/06/01 23:44:56;;;;;;;9.40;4.75;;;;;;;;;;4234770;82;28632;-80
2022/06/01 23:51:04;;;;;;;9.78;4.97;;;;;;;;;;4247955;82;28530;-81
2022/06/01 23:57:09;;;;;;;8.90;5.47;;;;;;;;;;4253775;82;28482;-79
